Time;durP1;ratioP1;P1;durP2;ratioP2;P2;SDS_P1;SDS_P2;PMS_P1;PMS_P2;Temp;Humidity;BMP_temperature;BMP_pressure;BME280_temperature;BME280_humidity;BME280_pressure;Samples;Min_cycle;Max_cycle;Signal;HPM_P1;HPM_P2
2021/08/14 00:02:00;;;;;;;31.03;29.03;;;22.00;79.20;;;;;;5081775;28;20544;-70
2021/08/14 00:04:27;;;;;;;31.40;29.20;;;22.00;79.30;;;;;;5081377;28;20449;-70
2021/08/14 00:06:53;;;;;;;31.20;28.83;;;22.00;79.30;;;;;;5082748;28;20552;-70
2021/08/14 00:09:20;;;;;;;31.63;29.47;;;21.90;79.40;;;;;;5081227;28;20799;-70
2021/08/14 00:11:47;;;;;;;31.90;29.80;;;21.90;79.40;;;;;;5082917;28;20544;-70
2021/08/14 00:14:14;;;;;;;33.50;31.20;;;21.90;79.60;;;;;;5082887;28;20477;-71
2021/08/14 00:16:42;;;;;;;32.57;30.37;;;21.90;79.80;;;;;;5079952;28;20572;-70
2021/08/14 00:19:09;;;;;;;32.37;30.27;;;21.80;79.90;;;;;;5077799;28;20453;-70
2021/08/14 00:21:36;;;;;;;32.23;30.23;;;21.80;80.00;;;;;;5078182;28;20469;-70
2021/08/14 00:24:03;;;;;;;32.20;30.20;;;21.80;80.30;;;;;;5081982;28;20449;-70
2021/08/14 00:26:30;;;;;;;32.00;29.90;;;21.60;80.60;;;;;;5085263;28;20568;-71
2021/08/14 00:28:57;;;;;;;32.07;30.07;;;21.60;80.60;;;;;;5081008;28;20489;-72
2021/08/14 00:31:24;;;;;;;31.47;29.57;;;21.60;80.80;;;;;;5083107;28;20450;-72
2021/08/14 00:33:52;;;;;;;31.90;29.90;;;21.60;80.90;;;;;;5078278;28;20516;-71
2021/08/14 00:36:19;;;;;;;31.00;29.10;;;21.50;81.10;;;;;;5082374;28;20464;-72
2021/08/14 00:38:46;;;;;;;31.67;29.47;;;21.50;81.20;;;;;;5074611;28;20450;-71
2021/08/14 00:41:13;;;;;;;31.53;29.43;;;21.40;81.40;;;;;;5073845;28;20457;-71
2021/08/14 00:43:40;;;;;;;32.20;29.90;;;21.40;81.40;;;;;;5081543;28;20465;-71
2021/08/14 00:46:07;;;;;;;31.73;29.73;;;21.30;81.90;;;;;;5078115;28;20457;-71
2021/08/14 00:48:35;;;;;;;31.07;29.17;;;21.30;81.80;;;;;;5078708;28;20484;-71
2021/08/14 00:51:03;;;;;;;30.50;28.50;;;21.30;82.00;;;;;;5075325;28;20551;-71
2021/08/14 00:53:30;;;;;;;30.23;28.40;;;21.20;82.10;;;;;;5084810;28;20461;-71
2021/08/14 00:55:57;;;;;;;31.73;29.60;;;21.20;82.30;;;;;;5079833;28;20470;-72
2021/08/14 00:58:24;;;;;;;31.90;29.60;;;21.20;82.40;;;;;;5088459;28;20464;-71
2021/08/14 01:00:51;;;;;;;30.43;28.33;;;21.20;82.50;;;;;;5083570;28;20804;-71
2021/08/14 01:03:19;;;;;;;30.40;28.60;;;21.10;82.50;;;;;;5075976;28;20462;-72
2021/08/14 01:05:46;;;;;;;30.37;28.40;;;21.10;82.30;;;;;;5082404;28;20461;-71
2021/08/14 01:08:16;;;;;;;31.30;29.13;;;21.10;82.40;;;;;;5090101;28;21540;-70
2021/08/14 01:10:44;;;;;;;30.40;28.50;;;21.10;82.30;;;;;;5079999;28;20454;-70
2021/08/14 01:13:11;;;;;;;30.50;28.77;;;21.10;82.20;;;;;;5083203;28;20461;-70
2021/08/14 01:15:41;;;;;;;31.23;29.30;;;21.10;82.30;;;;;;5083702;28;20480;-70
2021/08/14 01:18:12;;;;;;;29.87;28.07;;;21.00;82.40;;;;;;5076854;28;20469;-70
2021/08/14 01:20:39;;;;;;;31.00;28.90;;;21.00;82.50;;;;;;5085982;28;20949;-70
2021/08/14 01:23:06;;;;;;;30.60;28.57;;;21.00;82.60;;;;;;5080276;28;20450;-69
2021/08/14 01:25:34;;;;;;;30.23;28.23;;;20.90;82.70;;;;;;5086976;28;20528;-70
2021/08/14 01:28:03;;;;;;;29.90;28.07;;;20.90;82.60;;;;;;5090029;28;20599;-70
2021/08/14 01:30:30;;;;;;;31.20;28.93;;;20.90;82.60;;;;;;5088385;28;20463;-69
2021/08/14 01:32:57;;;;;;;31.70;29.50;;;20.90;82.70;;;;;;5078905;28;20457;-70
2021/08/14 01:35:24;;;;;;;31.70;29.60;;;20.80;83.10;;;;;;5084217;28;21202;-70
2021/08/14 01:37:51;;;;;;;31.60;29.50;;;20.80;83.00;;;;;;5082729;28;20476;-70
2021/08/14 01:40:18;;;;;;;31.10;29.10;;;20.70;83.30;;;;;;5090422;28;20457;-70
2021/08/14 01:42:45;;;;;;;30.20;28.27;;;20.70;83.30;;;;;;5082109;28;20556;-70
2021/08/14 01:45:14;;;;;;;30.83;28.83;;;20.60;83.50;;;;;;5086306;28;20479;-70
2021/08/14 01:47:41;;;;;;;30.80;28.90;;;20.60;83.40;;;;;;5085343;28;20487;-70
2021/08/14 01:50:09;;;;;;;29.90;28.10;;;20.60;83.20;;;;;;5084404;28;20467;-70
2021/08/14 01:52:35;;;;;;;30.00;28.10;;;20.60;83.10;;;;;;5078915;28;20465;-70
2021/08/14 01:55:03;;;;;;;30.07;28.17;;;20.60;83.40;;;;;;5081732;28;20461;-70
2021/08/14 01:57:30;;;;;;;29.63;27.83;;;20.50;83.60;;;;;;5086770;28;20473;-70
2021/08/14 01:59:57;;;;;;;29.37;27.47;;;20.50;83.80;;;;;;5087725;28;20485;-69
2021/08/14 02:02:25;;;;;;;30.20;28.27;;;20.40;83.80;;;;;;5078546;28;20556;-70
2021/08/14 02:04:52;;;;;;;29.27;27.50;;;20.30;84.10;;;;;;5077047;28;20896;-70
2021/08/14 02:07:19;;;;;;;28.90;27.10;;;20.30;84.20;;;;;;5087449;28;20487;-70
2021/08/14 02:09:46;;;;;;;29.80;27.80;;;20.30;84.20;;;;;;5081752;28;20472;-69
2021/08/14 02:12:13;;;;;;;31.10;28.67;;;20.30;84.10;;;;;;5083904;28;20488;-70
2021/08/14 02:14:39;;;;;;;30.43;28.53;;;20.30;84.20;;;;;;5087859;28;20483;-70
2021/08/14 02:17:06;;;;;;;29.17;27.33;;;20.30;84.40;;;;;;5081767;28;20482;-70
2021/08/14 02:19:35;;;;;;;31.73;29.53;;;20.30;84.50;;;;;;5084772;28;20464;-70
2021/08/14 02:22:01;;;;;;;30.10;28.20;;;20.30;84.50;;;;;;5089051;28;20465;-69
2021/08/14 02:24:28;;;;;;;30.10;28.30;;;20.20;84.50;;;;;;5075367;28;20465;-71
2021/08/14 02:26:55;;;;;;;29.47;27.70;;;20.20;84.60;;;;;;5079195;28;21033;-71
2021/08/14 02:29:22;;;;;;;30.97;29.07;;;20.20;84.70;;;;;;5087179;28;20469;-71
2021/08/14 02:31:49;;;;;;;29.97;28.07;;;20.20;84.70;;;;;;5086184;28;20461;-71
2021/08/14 02:34:16;;;;;;;30.23;28.10;;;20.20;84.70;;;;;;5077158;28;20469;-71
2021/08/14 02:36:44;;;;;;;30.13;28.13;;;20.20;84.70;;;;;;5082875;28;20488;-71
2021/08/14 02:39:11;;;;;;;28.40;26.50;;;20.20;84.70;;;;;;5077329;28;20812;-71
2021/08/14 02:41:38;;;;;;;29.27;27.27;;;20.10;84.70;;;;;;5085498;28;20472;-71
2021/08/14 02:44:05;;;;;;;31.17;29.07;;;20.10;84.60;;;;;;5080188;28;20817;-72
2021/08/14 02:46:32;;;;;;;30.10;28.03;;;20.10;84.50;;;;;;5087461;28;20946;-71
2021/08/14 02:48:59;;;;;;;29.13;27.33;;;20.10;84.80;;;;;;5085694;28;20958;-71
2021/08/14 02:51:26;;;;;;;30.33;28.43;;;20.10;84.80;;;;;;5086041;28;20555;-71
2021/08/14 02:53:54;;;;;;;28.70;26.90;;;20.10;84.70;;;;;;5079620;28;20461;-71
2021/08/14 02:56:24;;;;;;;28.97;26.90;;;20.00;85.00;;;;;;5083015;28;20994;-71
2021/08/14 02:58:51;;;;;;;29.47;27.57;;;19.90;85.10;;;;;;5078831;28;20668;-71
2021/08/14 03:01:17;;;;;;;30.03;28.13;;;19.90;85.20;;;;;;5081727;28;21851;-71
2021/08/14 03:03:44;;;;;;;29.97;27.97;;;19.90;85.30;;;;;;5079322;28;20459;-71
2021/08/14 03:06:29;;;;;;;28.97;27.27;;;19.90;85.40;;;;;;5082655;28;20458;-70
2021/08/14 03:08:58;;;;;;;30.93;28.63;;;19.90;85.40;;;;;;5077165;28;20540;-70
2021/08/14 03:11:25;;;;;;;27.77;26.10;;;19.80;85.60;;;;;;5085450;28;20453;-69
2021/08/14 03:13:52;;;;;;;30.20;28.00;;;19.80;85.50;;;;;;5084101;28;20469;-70
2021/08/14 03:16:19;;;;;;;28.37;26.67;;;19.80;85.60;;;;;;5084803;28;20483;-70
2021/08/14 03:18:46;;;;;;;29.10;27.30;;;19.80;85.50;;;;;;5085081;28;20481;-70
2021/08/14 03:21:13;;;;;;;28.60;26.90;;;19.80;85.50;;;;;;5082622;28;20547;-70
2021/08/14 03:23:40;;;;;;;29.03;27.33;;;19.80;85.50;;;;;;5078891;28;20539;-70
2021/08/14 03:26:08;;;;;;;29.27;27.33;;;19.80;85.60;;;;;;5080886;28;20449;-70
2021/08/14 03:28:35;;;;;;;28.07;26.27;;;19.80;85.60;;;;;;5080245;28;20472;-69
2021/08/14 03:31:02;;;;;;;29.80;27.83;;;19.80;85.70;;;;;;5082511;28;20476;-70
2021/08/14 03:33:29;;;;;;;29.60;27.60;;;19.80;85.70;;;;;;5078164;28;20469;-70
2021/08/14 03:35:56;;;;;;;30.83;28.87;;;19.80;85.70;;;;;;5079653;28;20507;-70
2021/08/14 03:38:23;;;;;;;28.47;26.47;;;19.80;85.60;;;;;;5076791;28;20478;-69
2021/08/14 03:40:49;;;;;;;29.10;27.20;;;19.80;85.80;;;;;;5085911;28;22753;-71
2021/08/14 03:43:19;;;;;;;28.80;27.10;;;19.80;85.80;;;;;;5085844;28;20468;-71
2021/08/14 03:45:46;;;;;;;28.77;26.87;;;19.80;85.80;;;;;;5078052;28;20541;-71
2021/08/14 03:48:13;;;;;;;28.73;26.93;;;19.80;85.70;;;;;;5084495;28;20485;-71
2021/08/14 03:50:40;;;;;;;29.07;26.97;;;19.80;85.60;;;;;;5071609;28;20461;-71
2021/08/14 03:53:07;;;;;;;28.93;26.80;;;19.80;85.60;;;;;;5075432;28;20831;-71
2021/08/14 03:55:33;;;;;;;29.57;27.60;;;19.80;85.70;;;;;;5082158;28;20469;-71
2021/08/14 03:58:00;;;;;;;28.97;26.93;;;19.70;85.90;;;;;;5084896;28;20572;-71
2021/08/14 04:00:29;;;;;;;30.20;28.30;;;19.70;86.00;;;;;;5078551;28;20465;-71
2021/08/14 04:02:56;;;;;;;28.50;26.70;;;19.80;85.70;;;;;;5068097;28;20568;-71
2021/08/14 04:05:23;;;;;;;31.93;29.80;;;19.80;85.60;;;;;;5070535;28;20450;-71
2021/08/14 04:07:50;;;;;;;28.17;26.30;;;19.70;85.80;;;;;;5080356;28;20490;-71
2021/08/14 04:10:17;;;;;;;31.73;29.50;;;19.70;85.90;;;;;;5082935;28;20456;-71
2021/08/14 04:12:44;;;;;;;29.83;27.83;;;19.70;85.90;;;;;;5079139;28;20454;-71
2021/08/14 04:15:11;;;;;;;29.13;26.90;;;19.60;86.00;;;;;;5073074;28;20474;-71
2021/08/14 04:17:40;;;;;;;34.27;31.93;;;19.60;86.20;;;;;;5075473;28;20478;-71
2021/08/14 04:20:08;;;;;;;29.07;27.27;;;19.40;86.50;;;;;;5080560;28;20560;-71
2021/08/14 04:22:35;;;;;;;31.47;29.47;;;19.40;86.60;;;;;;5077631;28;20466;-71
2021/08/14 04:25:02;;;;;;;30.77;28.73;;;19.30;86.90;;;;;;5082337;28;20453;-71
2021/08/14 04:27:29;;;;;;;30.93;29.00;;;19.30;87.00;;;;;;5079843;28;20584;-71
2021/08/14 04:29:56;;;;;;;30.87;28.77;;;19.30;87.00;;;;;;5082016;28;20457;-71
2021/08/14 04:32:23;;;;;;;32.10;30.10;;;19.40;86.90;;;;;;5082855;28;20461;-70
2021/08/14 04:34:51;;;;;;;34.77;32.67;;;19.40;86.80;;;;;;5077769;28;20465;-70
2021/08/14 04:37:18;;;;;;;34.17;31.97;;;19.40;86.80;;;;;;5078050;28;20576;-69
2021/08/14 04:39:45;;;;;;;33.53;31.50;;;19.50;86.60;;;;;;5086677;28;20507;-69
2021/08/14 04:42:12;;;;;;;34.83;32.73;;;19.60;86.40;;;;;;5086760;28;20460;-70
2021/08/14 04:44:38;;;;;;;29.90;28.07;;;19.70;86.00;;;;;;5083972;28;20453;-70
2021/08/14 04:47:05;;;;;;;35.10;32.90;;;19.70;86.00;;;;;;5078738;28;20468;-69
2021/08/14 04:49:32;;;;;;;31.57;29.17;;;19.70;85.90;;;;;;5081884;28;20456;-70
2021/08/14 04:52:00;;;;;;;31.93;29.93;;;19.80;85.80;;;;;;5075110;28;20465;-72
2021/08/14 04:54:27;;;;;;;30.50;28.63;;;19.90;85.50;;;;;;5072584;28;20457;-69
2021/08/14 04:56:54;;;;;;;30.73;28.83;;;19.90;85.40;;;;;;5082623;28;20487;-70
2021/08/14 04:59:21;;;;;;;31.90;29.80;;;20.00;85.20;;;;;;5076624;28;20453;-70
2021/08/14 05:01:48;;;;;;;31.73;29.57;;;20.10;85.00;;;;;;5079376;28;20453;-71
2021/08/14 05:04:15;;;;;;;32.33;30.27;;;20.20;84.30;;;;;;5077332;28;20544;-70
2021/08/14 05:06:42;;;;;;;31.57;29.67;;;20.20;84.20;;;;;;5076835;28;20480;-69
2021/08/14 05:09:10;;;;;;;31.83;29.83;;;20.20;84.30;;;;;;5083093;28;20995;-69
2021/08/14 05:11:37;;;;;;;32.07;30.07;;;20.30;84.20;;;;;;5084487;28;20462;-69
2021/08/14 05:14:04;;;;;;;32.33;30.07;;;20.40;84.00;;;;;;5082261;28;20548;-69
2021/08/14 05:16:31;;;;;;;32.43;30.40;;;20.40;83.90;;;;;;5076603;28;20478;-69
2021/08/14 05:18:58;;;;;;;33.07;31.00;;;20.50;83.90;;;;;;5079124;28;20561;-69
2021/08/14 05:21:26;;;;;;;33.77;31.70;;;20.50;83.90;;;;;;5079305;28;20467;-69
2021/08/14 05:23:53;;;;;;;32.67;30.47;;;20.60;83.70;;;;;;5080942;28;20456;-70
2021/08/14 05:26:21;;;;;;;32.63;30.43;;;20.60;83.40;;;;;;5079311;28;20454;-69
2021/08/14 05:28:48;;;;;;;32.17;30.07;;;20.70;83.50;;;;;;5085217;28;20536;-70
2021/08/14 05:31:15;;;;;;;33.50;30.70;;;20.70;83.10;;;;;;5079684;28;20759;-69
2021/08/14 05:33:42;;;;;;;34.47;32.27;;;20.80;82.80;;;;;;5078777;28;20957;-69
2021/08/14 05:36:09;;;;;;;32.63;30.30;;;20.90;82.60;;;;;;5077618;28;20919;-69
2021/08/14 05:38:36;;;;;;;34.03;31.73;;;20.90;82.40;;;;;;5085769;28;20780;-69
2021/08/14 05:41:04;;;;;;;35.47;33.17;;;21.00;82.30;;;;;;5086913;28;20449;-69
2021/08/14 05:43:32;;;;;;;32.70;30.40;;;21.10;82.20;;;;;;5089988;28;20879;-70
2021/08/14 05:45:59;;;;;;;36.30;33.83;;;21.10;81.90;;;;;;5082583;28;20460;-70
2021/08/14 05:48:26;;;;;;;32.53;30.53;;;21.20;81.50;;;;;;5076944;28;20485;-69
2021/08/14 05:50:53;;;;;;;32.70;30.80;;;21.30;81.30;;;;;;5079878;28;20946;-70
2021/08/14 05:53:20;;;;;;;33.17;30.97;;;21.40;81.00;;;;;;5087500;28;20461;-70
2021/08/14 05:55:47;;;;;;;33.20;31.00;;;21.50;80.90;;;;;;5085674;28;20469;-70
2021/08/14 05:58:14;;;;;;;33.77;31.80;;;21.50;80.90;;;;;;5086539;28;20559;-70
2021/08/14 06:00:42;;;;;;;32.63;30.47;;;21.50;80.70;;;;;;5074853;28;20455;-70
2021/08/14 06:03:09;;;;;;;34.50;32.20;;;21.50;80.50;;;;;;5086800;28;20844;-70
2021/08/14 06:05:36;;;;;;;35.77;33.60;;;21.60;80.40;;;;;;5083354;28;20557;-70
2021/08/14 06:08:03;;;;;;;33.43;31.23;;;21.70;80.40;;;;;;5088072;28;20483;-70
2021/08/14 06:10:30;;;;;;;32.87;30.77;;;21.80;80.80;;;;;;5085389;28;20461;-70
2021/08/14 06:12:57;;;;;;;37.33;34.90;;;21.80;80.60;;;;;;5089073;28;20453;-69
2021/08/14 06:15:23;;;;;;;32.73;30.60;;;22.00;80.40;;;;;;5075143;28;20449;-70
2021/08/14 06:17:53;;;;;;;36.17;33.87;;;22.10;79.90;;;;;;5089973;28;20477;-72
2021/08/14 06:20:20;;;;;;;34.37;32.37;;;22.30;79.60;;;;;;5089948;28;20457;-74
2021/08/14 06:22:47;;;;;;;34.00;31.90;;;22.30;79.20;;;;;;5086532;28;20469;-73
2021/08/14 06:25:14;;;;;;;34.27;32.17;;;22.50;78.70;;;;;;5084198;28;20456;-73
2021/08/14 06:27:41;;;;;;;33.50;31.50;;;22.60;78.70;;;;;;5089758;28;20519;-74
2021/08/14 06:30:09;;;;;;;36.63;34.33;;;22.70;78.30;;;;;;5075887;28;20449;-74
2021/08/14 06:32:36;;;;;;;34.37;32.30;;;22.90;77.90;;;;;;5079206;28;20548;-74
2021/08/14 06:35:05;;;;;;;36.67;34.57;;;22.90;77.50;;;;;;5077909;28;20467;-72
2021/08/14 06:37:32;;;;;;;35.63;33.40;;;23.00;76.90;;;;;;5081162;28;20569;-73
2021/08/14 06:40:00;;;;;;;36.17;33.67;;;23.10;76.80;;;;;;5088635;28;20457;-74
2021/08/14 06:42:27;;;;;;;34.97;32.63;;;23.10;76.70;;;;;;5079932;28;20555;-72
2021/08/14 06:44:54;;;;;;;35.37;33.10;;;23.30;76.40;;;;;;5074571;28;20462;-75
2021/08/14 06:47:21;;;;;;;36.57;34.10;;;23.30;76.00;;;;;;5079896;28;20476;-73
2021/08/14 06:49:48;;;;;;;33.20;30.90;;;23.30;76.00;;;;;;5075090;28;20550;-75
2021/08/14 06:52:16;;;;;;;36.00;33.57;;;23.70;74.90;;;;;;5085468;28;20473;-73
2021/08/14 06:54:43;;;;;;;36.53;33.93;;;23.70;74.80;;;;;;5088924;28;20455;-74
2021/08/14 06:57:10;;;;;;;37.63;35.23;;;23.80;75.10;;;;;;5084927;28;20482;-75
2021/08/14 06:59:36;;;;;;;34.30;32.10;;;23.80;75.00;;;;;;5080108;28;20491;-75
2021/08/14 07:02:04;;;;;;;36.57;34.27;;;23.90;74.80;;;;;;5079799;28;20453;-77
2021/08/14 07:04:30;;;;;;;35.93;33.63;;;24.00;74.50;;;;;;5078759;28;20532;-76
2021/08/14 07:06:57;;;;;;;34.37;32.30;;;24.10;73.90;;;;;;5078938;28;20488;-75
2021/08/14 07:09:26;;;;;;;33.90;31.80;;;24.20;73.50;;;;;;5081041;28;20587;-75
2021/08/14 07:11:52;;;;;;;34.87;32.67;;;24.30;73.60;;;;;;5082608;28;20449;-76
2021/08/14 07:14:19;;;;;;;34.10;31.53;;;24.30;73.40;;;;;;5083779;28;20481;-77
2021/08/14 07:16:46;;;;;;;35.47;33.30;;;24.40;73.20;;;;;;5078061;28;20475;-75
2021/08/14 07:19:13;;;;;;;35.50;33.07;;;24.50;72.80;;;;;;5082015;28;20886;-75
2021/08/14 07:21:40;;;;;;;36.50;33.90;;;24.50;72.40;;;;;;5078666;28;20460;-75
2021/08/14 07:24:07;;;;;;;34.87;32.77;;;24.60;72.10;;;;;;5071551;28;20456;-76
2021/08/14 07:26:35;;;;;;;37.57;35.37;;;24.60;72.20;;;;;;5071532;28;21114;-78
2021/08/14 07:29:02;;;;;;;35.53;33.23;;;24.70;72.00;;;;;;5072097;28;20921;-77
2021/08/14 07:31:29;;;;;;;38.37;35.87;;;24.80;71.70;;;;;;5070471;28;20461;-75
2021/08/14 07:33:56;;;;;;;37.47;35.17;;;24.80;71.60;;;;;;5073212;28;20548;-76
2021/08/14 07:36:23;;;;;;;37.37;34.80;;;24.90;71.50;;;;;;5071933;28;20477;-79
2021/08/14 07:38:50;;;;;;;35.97;33.57;;;25.10;71.10;;;;;;5071953;28;20452;-76
2021/08/14 07:41:17;;;;;;;37.73;35.17;;;25.20;70.50;;;;;;5072262;28;20622;-76
2021/08/14 07:43:45;;;;;;;38.13;35.87;;;25.20;70.50;;;;;;5071435;28;20463;-78
2021/08/14 07:46:12;;;;;;;35.27;32.97;;;25.20;70.60;;;;;;5071533;28;20465;-75
2021/08/14 07:48:39;;;;;;;33.93;31.87;;;25.30;70.50;;;;;;5070668;28;20476;-78
2021/08/14 07:51:06;;;;;;;34.57;32.53;;;25.40;70.50;;;;;;5075951;28;20437;-75
2021/08/14 07:53:33;;;;;;;36.97;34.67;;;25.60;70.50;;;;;;5080994;28;20988;-74
2021/08/14 07:56:00;;;;;;;35.77;33.23;;;25.70;69.90;;;;;;5078665;28;20519;-74
2021/08/14 07:58:27;;;;;;;36.77;34.47;;;25.60;70.10;;;;;;5089378;28;21006;-74
2021/08/14 08:00:56;;;;;;;37.00;34.70;;;25.70;70.10;;;;;;5085552;28;20489;-74
2021/08/14 08:03:23;;;;;;;36.47;34.27;;;25.80;69.60;;;;;;5089911;28;20480;-74
2021/08/14 08:05:50;;;;;;;36.87;34.20;;;25.80;69.70;;;;;;5086128;28;21115;-74
2021/08/14 08:08:17;;;;;;;37.10;34.67;;;25.90;69.10;;;;;;5082209;28;21082;-73
2021/08/14 08:10:44;;;;;;;37.20;34.80;;;25.80;69.30;;;;;;5072809;28;20459;-73
2021/08/14 08:13:11;;;;;;;36.97;34.63;;;25.80;69.40;;;;;;5087400;28;20461;-74
2021/08/14 08:15:38;;;;;;;35.37;33.20;;;25.70;69.50;;;;;;5069798;28;20450;-73
2021/08/14 08:18:06;;;;;;;38.70;36.17;;;25.80;68.80;;;;;;5088522;28;20485;-73
2021/08/14 08:20:33;;;;;;;38.30;35.73;;;25.90;68.60;;;;;;5082664;28;20997;-73
2021/08/14 08:23:00;;;;;;;36.43;33.93;;;26.00;68.30;;;;;;5088992;28;20475;-73
2021/08/14 08:25:26;;;;;;;35.70;33.30;;;26.00;68.50;;;;;;5089311;28;20539;-73
2021/08/14 08:27:53;;;;;;;39.93;37.10;;;26.10;68.70;;;;;;5078244;28;20476;-72
2021/08/14 08:30:21;;;;;;;36.07;33.53;;;26.20;68.50;;;;;;5083772;28;20461;-75
2021/08/14 08:32:50;;;;;;;39.33;36.83;;;26.40;67.80;;;;;;5070785;28;21008;-74
2021/08/14 08:35:19;;;;;;;37.50;34.97;;;26.60;67.30;;;;;;5070291;28;20571;-73
2021/08/14 08:37:46;;;;;;;36.20;33.90;;;26.60;66.50;;;;;;5071475;28;20489;-71
2021/08/14 08:40:14;;;;;;;36.17;33.77;;;26.70;66.40;;;;;;5069111;28;20453;-71
2021/08/14 08:42:42;;;;;;;36.50;34.10;;;26.80;66.00;;;;;;5071722;28;20466;-70
2021/08/14 08:45:10;;;;;;;38.60;36.00;;;26.90;66.00;;;;;;5069388;28;20463;-78
2021/08/14 08:47:43;;;;;;;39.27;36.60;;;26.90;65.60;;;;;;5069266;28;20974;-76
2021/08/14 08:50:11;;;;;;;39.90;37.07;;;27.00;65.20;;;;;;5078980;28;20449;-72
2021/08/14 08:52:41;;;;;;;36.60;34.10;;;27.10;64.80;;;;;;5083822;28;23408;-72
2021/08/14 08:55:10;;;;;;;35.63;33.13;;;27.20;64.70;;;;;;5071791;28;20468;-73
2021/08/14 08:57:38;;;;;;;36.33;33.53;;;27.30;63.90;;;;;;5069326;28;20491;-72
2021/08/14 09:00:05;;;;;;;34.67;32.37;;;27.40;62.40;;;;;;5071616;28;21051;-73
2021/08/14 09:02:34;;;;;;;38.33;35.63;;;27.50;62.00;;;;;;5069881;28;20937;-73
2021/08/14 09:05:10;;;;;;;37.90;35.50;;;27.50;62.60;;;;;;5069793;28;20452;-73
2021/08/14 09:07:40;;;;;;;36.20;33.90;;;27.60;63.40;;;;;;5069495;28;20483;-72
2021/08/14 09:10:09;;;;;;;36.60;34.30;;;27.60;62.90;;;;;;5070090;28;21457;-72
2021/08/14 09:12:38;;;;;;;36.43;34.23;;;27.60;62.30;;;;;;5073742;28;20453;-72
2021/08/14 09:15:07;;;;;;;35.50;33.20;;;27.70;61.60;;;;;;5072690;28;20999;-72
2021/08/14 09:17:34;;;;;;;38.80;36.20;;;27.80;61.30;;;;;;5073865;28;20511;-73
2021/08/14 09:20:11;;;;;;;34.90;32.60;;;27.80;61.20;;;;;;5071282;28;20468;-73
2021/08/14 09:22:39;;;;;;;40.97;38.10;;;27.90;60.40;;;;;;5073546;28;20966;-72
2021/08/14 09:25:18;;;;;;;35.93;33.63;;;28.00;59.80;;;;;;5079588;28;20460;-72
2021/08/14 09:28:00;;;;;;;35.77;33.17;;;28.10;59.50;;;;;;5089377;28;21166;-72
2021/08/14 09:30:43;;;;;;;36.83;34.53;;;28.20;59.30;;;;;;5082117;28;20489;-73
2021/08/14 09:33:13;;;;;;;36.73;34.13;;;28.20;59.40;;;;;;5078891;28;20460;-76
2021/08/14 09:35:40;;;;;;;36.30;33.90;;;28.30;59.50;;;;;;5081441;28;20464;-76
2021/08/14 09:38:09;;;;;;;37.03;34.47;;;28.20;59.80;;;;;;5087982;28;20500;-73
2021/08/14 09:40:38;;;;;;;40.70;38.10;;;28.20;60.40;;;;;;5091162;28;20457;-73
2021/08/14 09:43:05;;;;;;;37.90;35.23;;;28.30;59.80;;;;;;5092097;28;20480;-73
2021/08/14 09:45:32;;;;;;;38.77;36.17;;;28.30;59.80;;;;;;5090212;28;20911;-73
2021/08/14 09:48:18;;;;;;;35.70;33.40;;;28.30;59.80;;;;;;5079149;28;20481;-74
2021/08/14 09:50:45;;;;;;;37.83;35.33;;;28.30;59.70;;;;;;5089286;28;20544;-75
2021/08/14 09:53:19;;;;;;;36.30;34.17;;;28.40;59.20;;;;;;5072874;28;20458;-73
2021/08/14 09:55:50;;;;;;;38.53;36.03;;;28.40;59.10;;;;;;5080880;28;20496;-73
2021/08/14 09:58:20;;;;;;;37.07;34.60;;;28.60;58.90;;;;;;5090706;28;20477;-73
2021/08/14 10:00:48;;;;;;;37.45;35.05;;;28.70;58.90;;;;;;5087827;28;20464;-72
2021/08/14 10:03:16;;;;;;;37.10;35.00;;;28.70;59.20;;;;;;5081764;28;20195;-72
2021/08/14 10:05:45;;;;;;;37.80;34.90;;;28.70;59.60;;;;;;5088738;28;20453;-71
2021/08/14 10:08:13;;;;;;;36.03;33.70;;;28.70;60.30;;;;;;5088330;28;20484;-71
2021/08/14 10:10:41;;;;;;;37.20;34.70;;;28.80;60.00;;;;;;5074911;28;20464;-71
2021/08/14 10:13:08;;;;;;;36.70;34.40;;;28.90;59.90;;;;;;5072248;28;21269;-72
2021/08/14 10:15:35;;;;;;;37.83;35.43;;;28.90;59.60;;;;;;5072759;28;20459;-71
2021/08/14 10:18:03;;;;;;;37.93;35.57;;;29.00;59.10;;;;;;5071812;28;20819;-71
2021/08/14 10:20:31;;;;;;;39.80;37.17;;;29.00;58.80;;;;;;5073424;28;20461;-76
2021/08/14 10:23:00;;;;;;;38.43;35.93;;;29.00;59.10;;;;;;5086065;28;20450;-75
2021/08/14 10:25:29;;;;;;;35.30;33.10;;;29.00;59.40;;;;;;5088231;28;20536;-73
2021/08/14 10:27:58;;;;;;;35.27;32.97;;;29.10;58.90;;;;;;5089697;28;20479;-74
2021/08/14 10:30:45;;;;;;;42.67;39.23;;;29.20;58.50;;;;;;5090316;28;20499;-72
2021/08/14 10:33:40;;;;;;;38.93;36.53;;;29.30;59.10;;;;;;5084404;28;20454;-73
2021/08/14 10:36:35;;;;;;;37.03;34.73;;;29.30;58.20;;;;;;5086317;28;20480;-73
2021/08/14 10:39:22;;;;;;;39.50;37.10;;;29.40;58.30;;;;;;5087269;28;20469;-72
2021/08/14 10:41:52;;;;;;;37.87;35.50;;;29.40;58.50;;;;;;5078420;28;20457;-73
2021/08/14 10:44:42;;;;;;;37.67;34.97;;;29.60;58.40;;;;;;5084493;28;20987;-73
2021/08/14 10:47:42;;;;;;;39.07;36.37;;;29.70;57.60;;;;;;5084081;28;20477;-73
2021/08/14 10:50:09;;;;;;;38.17;35.70;;;29.90;57.40;;;;;;5078673;28;20465;-73
2021/08/14 10:52:37;;;;;;;38.10;35.80;;;30.00;57.00;;;;;;5086041;28;20450;-74
2021/08/14 10:55:13;;;;;;;38.30;35.87;;;30.10;56.60;;;;;;5090541;28;20445;-73
2021/08/14 10:57:51;;;;;;;39.23;36.73;;;30.20;56.40;;;;;;5085234;28;20478;-73
2021/08/14 11:00:26;;;;;;;38.47;35.97;;;30.40;55.90;;;;;;5083759;28;20453;-73
2021/08/14 11:03:05;;;;;;;40.53;38.10;;;30.40;55.90;;;;;;5088663;28;20453;-73
2021/08/14 11:05:32;;;;;;;37.97;35.57;;;30.50;55.80;;;;;;5086094;28;20535;-71
2021/08/14 11:08:01;;;;;;;37.67;35.17;;;30.60;55.30;;;;;;5084430;28;20515;-71
2021/08/14 11:10:33;;;;;;;38.60;36.00;;;30.70;55.10;;;;;;5070710;28;20549;-71
2021/08/14 11:13:02;;;;;;;41.93;39.20;;;30.70;55.30;;;;;;5085313;28;20466;-72
2021/08/14 11:15:30;;;;;;;37.07;34.67;;;30.80;55.40;;;;;;5086686;28;20947;-72
2021/08/14 11:17:58;;;;;;;39.70;37.27;;;31.00;54.90;;;;;;5084455;28;20482;-73
2021/08/14 11:20:32;;;;;;;37.10;34.70;;;31.10;54.70;;;;;;5070792;28;20840;-71
2021/08/14 11:23:00;;;;;;;40.47;37.67;;;31.20;54.80;;;;;;5084983;28;20544;-71
2021/08/14 11:25:29;;;;;;;40.80;38.40;;;31.20;54.70;;;;;;5085020;28;20458;-71
2021/08/14 11:27:58;;;;;;;39.00;36.60;;;31.30;54.30;;;;;;5089434;28;20468;-71
2021/08/14 11:30:29;;;;;;;36.77;34.37;;;31.30;54.00;;;;;;5090655;28;20457;-72
2021/08/14 11:32:56;;;;;;;38.70;36.10;;;31.40;53.80;;;;;;5084822;28;20819;-72
2021/08/14 11:35:25;;;;;;;40.03;37.30;;;31.60;53.30;;;;;;5088958;28;20457;-71
2021/08/14 11:37:54;;;;;;;41.20;38.50;;;31.60;53.70;;;;;;5089387;28;20477;-72
2021/08/14 11:40:23;;;;;;;40.30;37.67;;;31.70;53.50;;;;;;5091314;28;20538;-72
2021/08/14 11:42:58;;;;;;;40.37;37.70;;;31.80;53.60;;;;;;5086024;28;20496;-72
2021/08/14 11:45:27;;;;;;;41.87;39.17;;;32.00;52.90;;;;;;5072755;28;21535;-72
2021/08/14 11:47:58;;;;;;;38.03;35.63;;;32.00;53.20;;;;;;5082937;28;20473;-72
2021/08/14 11:50:32;;;;;;;41.10;38.37;;;32.10;52.80;;;;;;5074430;28;20881;-71
2021/08/14 11:52:58;;;;;;;43.20;40.50;;;32.10;52.50;;;;;;5087529;28;20455;-71
2021/08/14 11:55:25;;;;;;;36.50;33.90;;;31.90;52.80;;;;;;5088215;28;20484;-71
2021/08/14 11:57:53;;;;;;;36.97;34.50;;;31.80;53.10;;;;;;5087849;28;20481;-71
2021/08/14 12:00:29;;;;;;;39.73;37.33;;;31.80;53.00;;;;;;5090312;28;20464;-71
2021/08/14 12:03:08;;;;;;;44.00;41.30;;;31.80;53.10;;;;;;5072351;28;20466;-71
2021/08/14 12:05:35;;;;;;;41.93;39.43;;;31.70;53.20;;;;;;5071494;28;20453;-71
2021/08/14 12:08:03;;;;;;;36.70;34.40;;;31.30;54.00;;;;;;5084414;28;20483;-71
2021/08/14 12:10:30;;;;;;;42.40;39.80;;;31.20;54.00;;;;;;5089017;28;20488;-70
2021/08/14 12:12:59;;;;;;;37.17;34.73;;;31.10;54.70;;;;;;5088412;28;20457;-71
2021/08/14 12:15:40;;;;;;;39.50;37.10;;;31.20;54.50;;;;;;5088630;28;20437;-71
2021/08/14 12:18:08;;;;;;;42.83;39.77;;;31.30;54.90;;;;;;5069185;28;20496;-71
2021/08/14 12:20:37;;;;;;;39.23;36.53;;;31.40;54.20;;;;;;5082096;28;20456;-71
2021/08/14 12:23:22;;;;;;;42.17;39.70;;;31.10;54.40;;;;;;5086132;28;20477;-71
2021/08/14 12:25:51;;;;;;;38.97;36.37;;;31.00;54.50;;;;;;5076156;28;20461;-70
2021/08/14 12:28:18;;;;;;;38.23;35.63;;;31.00;54.90;;;;;;5090345;28;20469;-71
2021/08/14 12:30:46;;;;;;;42.10;39.50;;;30.80;55.00;;;;;;5085947;28;20453;-70
2021/08/14 12:33:24;;;;;;;43.93;41.27;;;30.90;54.80;;;;;;5088819;28;20485;-70
2021/08/14 12:36:02;;;;;;;39.83;37.20;;;31.00;54.80;;;;;;5081263;28;20467;-71